Barbara E Bouchard — WBD6759 — position and weather

sailwx.info

Track history (hours):
 
Tides and Currents Weather Stations Pressure Air Temp Water Temp Dewpoint Dewpoint Depression Visibility Wind Speed Wind Dir Waves Ship Positions

Barbara E Bouchard

Owner: TUG BARBARA E BOUCHARD CORP, MELVILLE, NY. More information available from US FCC via Universal Licensing System and Coast Guard Vessel Documentation Center.

Last reported at 2017-Nov-15 21:53 UTC. Time now 2017-Nov-22 12:45 UTC.
Position N 27°44' W 082°32'.

Length 175 m; draft 8 m.

Type: Ship (hazmat cat D). MMSI: 367006520.

Date/timePositionNaut miles runAvg speedWind from/ knotsBaromVisibWave heightAir tempDewpointWater temp
2017-Nov-15 21:53N 27°44' W 082°32'4 9.1
2017-Nov-15 21:27N 27°47' W 082°30'4 8.8
2017-Nov-15 20:58N 27°50' W 082°27'4 8.9
2017-Nov-15 20:31N 27°55' W 082°26'0 0.7
2017-Nov-15 20:01N 27°55' W 082°27'0 0.0
2017-Nov-15 19:31N 27°55' W 082°27'0 0.0
2017-Nov-15 19:00N 27°55' W 082°27'0 0.0
2017-Nov-15 18:30N 27°55' W 082°27'0 0.0
2017-Nov-15 18:01N 27°55' W 082°27'0 0.0
2017-Nov-15 17:31N 27°55' W 082°27'0 0.0
2017-Nov-15 17:01N 27°55' W 082°27'1 2.7
2017-Nov-15 16:31N 27°56' W 082°27'0 0.9
2017-Nov-15 15:57N 27°57' W 082°27'0 0.0
2017-Nov-15 15:27N 27°57' W 082°27'0 0.0
2017-Nov-15 15:00N 27°57' W 082°27'0 0.0
2017-Nov-15 14:30N 27°57' W 082°27'0 0.0
2017-Nov-15 14:00N 27°57' W 082°27'0 0.0
2017-Nov-15 13:30N 27°57' W 082°27'0 0.0
2017-Nov-15 13:00N 27°57' W 082°27'0 0.0
2017-Nov-15 12:30N 27°57' W 082°27'0 0.0
2017-Nov-15 12:00N 27°57' W 082°27'0 0.0
2017-Nov-15 11:30N 27°57' W 082°27'0 0.2
2017-Nov-15 11:00N 27°57' W 082°27'0 0.0
2017-Nov-15 10:30N 27°57' W 082°27'0 0.0
2017-Nov-15 10:00N 27°57' W 082°27'0 0.0
2017-Nov-15 09:30N 27°57' W 082°27'0 0.0
2017-Nov-15 09:00N 27°57' W 082°27'0 0.0
2017-Nov-15 08:30N 27°57' W 082°27'0 0.0
2017-Nov-15 08:00N 27°57' W 082°27'0 0.0
2017-Nov-15 07:30N 27°57' W 082°27'0 0.0
2017-Nov-15 07:00N 27°57' W 082°27'0 0.0
2017-Nov-15 06:30N 27°57' W 082°27'0 0.0
2017-Nov-15 05:57N 27°57' W 082°27'0 0.0
2017-Nov-15 05:30N 27°57' W 082°27'0 0.0
2017-Nov-15 05:00N 27°57' W 082°27'0 0.0
2017-Nov-15 04:30N 27°57' W 082°27'0 0.0
2017-Nov-15 04:00N 27°57' W 082°27'0 0.0
2017-Nov-15 03:30N 27°57' W 082°27'0 0.0
2017-Nov-15 03:00N 27°57' W 082°27'0 0.0
2017-Nov-15 02:30N 27°57' W 082°27'0 0.0
2017-Nov-15 02:00N 27°57' W 082°27'0 0.0
2017-Nov-15 01:30N 27°57' W 082°27'0 0.0
2017-Nov-15 01:00N 27°57' W 082°27'0 0.0
2017-Nov-15 00:24N 27°57' W 082°27'0 0.0
2017-Nov-14 23:57N 27°57' W 082°27'0 0.0
2017-Nov-14 23:30N 27°57' W 082°27'0 0.0
2017-Nov-14 23:00N 27°57' W 082°27'0 0.0
2017-Nov-14 22:27N 27°57' W 082°27'0 0.0
2017-Nov-14 21:57N 27°57' W 082°27'0 0.0
2017-Nov-14 21:30N 27°57' W 082°27'0 0.0
2017-Nov-14 21:00N 27°57' W 082°27'0 0.0
2017-Nov-14 20:30N 27°57' W 082°27'0 0.0
2017-Nov-14 20:00N 27°57' W 082°27'0 0.0
2017-Nov-14 19:30N 27°57' W 082°27'0 0.0
2017-Nov-14 19:00N 27°57' W 082°27'1 2.3
2017-Nov-14 18:31N 27°55' W 082°27'1 1.3
2017-Nov-14 18:00N 27°55' W 082°27'0 0.1
2017-Nov-14 17:30N 27°55' W 082°27'3 6.7
2017-Nov-14 17:00N 27°51' W 082°27'4 8.8
2017-Nov-14 16:30N 27°48' W 082°29'  
Track history (hours):
 
Tides and Currents Weather Stations Pressure Air Temp Water Temp Dewpoint Dewpoint Depression Visibility Wind Speed Wind Dir Waves Ship Positions

Barbara E Bouchard

Owner: TUG BARBARA E BOUCHARD CORP, MELVILLE, NY. More information available from US FCC via Universal Licensing System and Coast Guard Vessel Documentation Center.

Last reported at 2017-Nov-15 21:53 UTC. Time now 2017-Nov-22 12:45 UTC.
Position N 27°44' W 082°32'.

Length 175 m; draft 8 m.

Type: Ship (hazmat cat D). MMSI: 367006520.

Date/timePositionNaut miles runAvg speedWind from/ knotsBaromVisibWave heightAir tempDewpointWater temp
2017-Nov-15 21:53N 27°44' W 082°32'4 9.1
2017-Nov-15 21:27N 27°47' W 082°30'4 8.8
2017-Nov-15 20:58N 27°50' W 082°27'4 8.9
2017-Nov-15 20:31N 27°55' W 082°26'0 0.7
2017-Nov-15 20:01N 27°55' W 082°27'0 0.0
2017-Nov-15 19:31N 27°55' W 082°27'0 0.0
2017-Nov-15 19:00N 27°55' W 082°27'0 0.0
2017-Nov-15 18:30N 27°55' W 082°27'0 0.0
2017-Nov-15 18:01N 27°55' W 082°27'0 0.0
2017-Nov-15 17:31N 27°55' W 082°27'0 0.0
2017-Nov-15 17:01N 27°55' W 082°27'1 2.7
2017-Nov-15 16:31N 27°56' W 082°27'0 0.9
2017-Nov-15 15:57N 27°57' W 082°27'0 0.0
2017-Nov-15 15:27N 27°57' W 082°27'0 0.0
2017-Nov-15 15:00N 27°57' W 082°27'0 0.0
2017-Nov-15 14:30N 27°57' W 082°27'0 0.0
2017-Nov-15 14:00N 27°57' W 082°27'0 0.0
2017-Nov-15 13:30N 27°57' W 082°27'0 0.0
2017-Nov-15 13:00N 27°57' W 082°27'0 0.0
2017-Nov-15 12:30N 27°57' W 082°27'0 0.0
2017-Nov-15 12:00N 27°57' W 082°27'0 0.0
2017-Nov-15 11:30N 27°57' W 082°27'0 0.2
2017-Nov-15 11:00N 27°57' W 082°27'0 0.0
2017-Nov-15 10:30N 27°57' W 082°27'0 0.0
2017-Nov-15 10:00N 27°57' W 082°27'0 0.0
2017-Nov-15 09:30N 27°57' W 082°27'0 0.0
2017-Nov-15 09:00N 27°57' W 082°27'0 0.0
2017-Nov-15 08:30N 27°57' W 082°27'0 0.0
2017-Nov-15 08:00N 27°57' W 082°27'0 0.0
2017-Nov-15 07:30N 27°57' W 082°27'0 0.0
2017-Nov-15 07:00N 27°57' W 082°27'0 0.0
2017-Nov-15 06:30N 27°57' W 082°27'0 0.0
2017-Nov-15 05:57N 27°57' W 082°27'0 0.0
2017-Nov-15 05:30N 27°57' W 082°27'0 0.0
2017-Nov-15 05:00N 27°57' W 082°27'0 0.0
2017-Nov-15 04:30N 27°57' W 082°27'0 0.0
2017-Nov-15 04:00N 27°57' W 082°27'0 0.0
2017-Nov-15 03:30N 27°57' W 082°27'0 0.0
2017-Nov-15 03:00N 27°57' W 082°27'0 0.0
2017-Nov-15 02:30N 27°57' W 082°27'0 0.0
2017-Nov-15 02:00N 27°57' W 082°27'0 0.0
2017-Nov-15 01:30N 27°57' W 082°27'0 0.0
2017-Nov-15 01:00N 27°57' W 082°27'0 0.0
2017-Nov-15 00:24N 27°57' W 082°27'0 0.0
2017-Nov-14 23:57N 27°57' W 082°27'0 0.0
2017-Nov-14 23:30N 27°57' W 082°27'0 0.0
2017-Nov-14 23:00N 27°57' W 082°27'0 0.0
2017-Nov-14 22:27N 27°57' W 082°27'0 0.0
2017-Nov-14 21:57N 27°57' W 082°27'0 0.0
2017-Nov-14 21:30N 27°57' W 082°27'0 0.0
2017-Nov-14 21:00N 27°57' W 082°27'0 0.0
2017-Nov-14 20:30N 27°57' W 082°27'0 0.0
2017-Nov-14 20:00N 27°57' W 082°27'0 0.0
2017-Nov-14 19:30N 27°57' W 082°27'0 0.0
2017-Nov-14 19:00N 27°57' W 082°27'1 2.3
2017-Nov-14 18:31N 27°55' W 082°27'1 1.3
2017-Nov-14 18:00N 27°55' W 082°27'0 0.1
2017-Nov-14 17:30N 27°55' W 082°27'3 6.7
2017-Nov-14 17:00N 27°51' W 082°27'4 8.8
2017-Nov-14 16:30N 27°48' W 082°29'  

Dump ship's entire track history